地図

経路データ

SID SEASON NUMBER BASIN SUBBASIN NAME ISO_TIME NATURE LAT LON WMO_WIND WMO_PRES WMO_AGENCY TRACK_TYPE DIST2LAND LANDFALL IFLAG USA_AGENCY USA_ATCF_ID USA_LAT USA_LON USA_RECORD USA_STATUS USA_WIND USA_PRES USA_SSHS USA_R34_NE USA_R34_SE USA_R34_SW USA_R34_NW USA_R50_NE USA_R50_SE USA_R50_SW USA_R50_NW USA_R64_NE USA_R64_SE USA_R64_SW USA_R64_NW USA_POCI USA_ROCI USA_RMW USA_EYE TOKYO_LAT TOKYO_LON TOKYO_GRADE TOKYO_WIND TOKYO_PRES TOKYO_R50_DIR TOKYO_R50_LONG TOKYO_R50_SHORT TOKYO_R30_DIR TOKYO_R30_LONG TOKYO_R30_SHORT TOKYO_LAND CMA_LAT CMA_LON CMA_CAT CMA_WIND CMA_PRES HKO_LAT HKO_LON HKO_CAT HKO_WIND HKO_PRES NEWDELHI_LAT NEWDELHI_LON NEWDELHI_GRADE NEWDELHI_WIND NEWDELHI_PRES NEWDELHI_CI NEWDELHI_DP NEWDELHI_POCI REUNION_LAT REUNION_LON REUNION_TYPE REUNION_WIND REUNION_PRES REUNION_TNUM REUNION_CI REUNION_RMW REUNION_R34_NE REUNION_R34_SE REUNION_R34_SW REUNION_R34_NW REUNION_R50_NE REUNION_R50_SE REUNION_R50_SW REUNION_R50_NW REUNION_R64_NE REUNION_R64_SE REUNION_R64_SW REUNION_R64_NW BOM_LAT BOM_LON BOM_TYPE BOM_WIND BOM_PRES BOM_TNUM BOM_CI BOM_RMW BOM_R34_NE BOM_R34_SE BOM_R34_SW BOM_R34_NW BOM_R50_NE BOM_R50_SE BOM_R50_SW BOM_R50_NW BOM_R64_NE BOM_R64_SE BOM_R64_SW BOM_R64_NW BOM_ROCI BOM_POCI BOM_EYE BOM_POS_METHOD BOM_PRES_METHOD NADI_LAT NADI_LON NADI_CAT NADI_WIND NADI_PRES WELLINGTON_LAT WELLINGTON_LON WELLINGTON_WIND WELLINGTON_PRES DS824_LAT DS824_LON DS824_STAGE DS824_WIND DS824_PRES TD9636_LAT TD9636_LON TD9636_STAGE TD9636_WIND TD9636_PRES TD9635_LAT TD9635_LON TD9635_WIND TD9635_PRES TD9635_ROCI NEUMANN_LAT NEUMANN_LON NEUMANN_CLASS NEUMANN_WIND NEUMANN_PRES MLC_LAT MLC_LON MLC_CLASS MLC_WIND MLC_PRES USA_GUST BOM_GUST BOM_GUST_PER REUNION_GUST REUNION_GUST_PER USA_SEAHGT USA_SEARAD_NE USA_SEARAD_SE USA_SEARAD_SW USA_SEARAD_NW STORM_SPEED STORM_DIR
1954305N13117 1954 87 WP MM NOT_NAMED 1954-11-01 00:00:00 TS 13.0000 116.500 main 374 362 __O___________ -1 13.0000 116.500 0 17 1008 4 0
1954305N13117 1954 87 WP MM NOT_NAMED 1954-11-01 03:00:00 TS 12.8100 116.497 main 362 352 __P___________ -1 12.8100 116.497 0 17 1006 4 0
1954305N13117 1954 87 WP MM NOT_NAMED 1954-11-01 06:00:00 TS 12.6000 116.500 main 352 343 __O___________ -1 12.6000 116.500 0 17 1004 5 178
1954305N13117 1954 87 WP MM NOT_NAMED 1954-11-01 09:00:00 TS 12.3575 116.508 main 343 331 __P___________ -1 12.3575 116.508 0 17 1004 5 178
1954305N13117 1954 87 WP MM NOT_NAMED 1954-11-01 12:00:00 TS 12.1000 116.500 main 331 322 __O___________ -1 12.1000 116.500 0 17 1004 5 185
1954305N13117 1954 87 WP MM NOT_NAMED 1954-11-01 15:00:00 TS 11.8500 116.473 main 315 309 __P___________ -1 11.8500 116.473 0 17 1004 5 191
1954305N13117 1954 87 WP MM NOT_NAMED 1954-11-01 18:00:00 TS 11.6000 116.400 main 309 296 __O___________ -1 11.6000 116.400 0 17 1004 5 201
1954305N13117 1954 87 WP MM NOT_NAMED 1954-11-01 21:00:00 TS 11.3575 116.280 main 296 282 __P___________ -1 11.3575 116.280 0 17 1004 6 210
1954305N13117 1954 87 WP MM NOT_NAMED 1954-11-02 00:00:00 TS 11.1000 116.100 main 282 274 __O___________ -1 11.1000 116.100 0 17 1004 7 215
1954305N13117 1954 87 WP MM NOT_NAMED 1954-11-02 03:00:00 TS 10.7850 115.865 main 274 274 __P___________ -1 10.7850 115.865 0 18 1003 8 219
1954305N13117 1954 87 WP MM NOT_NAMED 1954-11-02 06:00:00 TS 10.5000 115.600 main 274 274 __O___________ -1 10.5000 115.600 0 19 1003 7 226
1954305N13117 1954 87 WP MM NOT_NAMED 1954-11-02 09:00:00 TS 10.2825 115.342 main 287 281 __P___________ -1 10.2825 115.342 0 19 1003 6 239
1954305N13117 1954 87 WP MM NOT_NAMED 1954-11-02 12:00:00 TS 10.2000 115.100 main 300 300 __O___________ -1 10.2000 115.100 0 19 1003 5 273
1954305N13117 1954 87 WP MM NOT_NAMED 1954-11-02 15:00:00 TS 10.3125 114.818 main 334 334 __P___________ -1 10.3125 114.818 0 21 1002 5 307
1954305N13117 1954 87 WP MM NOT_NAMED 1954-11-02 18:00:00 TS 10.5000 114.700 main 355 342 __O___________ -1 10.5000 114.700 1 23 1002 3 20
1954305N13117 1954 87 WP MM NOT_NAMED 1954-11-02 21:00:00 TS 10.6151 114.932 main 342 314 __P___________ -1 10.6151 114.932 1 23 1002 6 71
1954305N13117 1954 87 WP MM NOT_NAMED 1954-11-03 00:00:00 TS 10.7000 115.300 main 314 297 __O___________ -1 10.7000 115.300 1 23 1002 6 78
1954305N13117 1954 87 WP MM NOT_NAMED 1954-11-03 03:00:00 TS 10.7500 115.558 main 289 282 __P___________ -1 10.7500 115.558 1 23 1002 5 78
1954305N13117 1954 87 WP MM NOT_NAMED 1954-11-03 06:00:00 TS 10.8000 115.800 main 282 274 __O___________ -1 10.8000 115.800 1 23 1002 5 73
1954305N13117 1954 87 WP MM NOT_NAMED 1954-11-03 09:00:00 TS 10.8925 116.043 main 274 258 __P___________ -1 10.8925 116.043 1 23 1002 5 68
1954305N13117 1954 87 WP MM NOT_NAMED 1954-11-03 12:00:00 TS 11.0000 116.300 main 260 250 __O___________ -1 11.0000 116.300 1 23 1002 6 70
1954305N13117 1954 87 WP MM NOT_NAMED 1954-11-03 15:00:00 TS 11.0925 116.600 main 250 239 __P___________ -1 11.0925 116.600 1 23 1002 6 71
1954305N13117 1954 87 WP MM NOT_NAMED 1954-11-03 18:00:00 TS 11.2000 116.900 main 241 229 __O___________ -1 11.2000 116.900 1 23 1002 6 66
1954305N13117 1954 87 WP MM NOT_NAMED 1954-11-03 21:00:00 TS 11.3349 117.150 main 220 218 __P___________ -1 11.3349 117.150 1 23 1002 6 59
1954305N13117 1954 87 WP MM NOT_NAMED 1954-11-04 00:00:00 TS 11.5000 117.400 main 218 201 __O___________ -1 11.5000 117.400 1 23 1002 6 55
1954305N13117 1954 87 WP MM NOT_NAMED 1954-11-04 03:00:00 TS 11.6849 117.663 main 193 171 __P___________ -1 11.6849 117.663 1 23 1001 7 56
1954305N13117 1954 87 WP MM NOT_NAMED 1954-11-04 06:00:00 TS 11.9000 118.000 main 171 148 __O___________ -1 11.9000 118.000 1 23 1001 9 60
1954305N13117 1954 87 WP MM NOT_NAMED 1954-11-04 09:00:00 TS 12.1350 118.470 main 140 129 __P___________ -1 12.1350 118.470 1 26 1001 11 63
1954305N13117 1954 87 WP MM NOT_NAMED 1954-11-04 12:00:00 TS 12.4000 119.000 main 134 116 __O___________ -1 12.4000 119.000 1 29 1002 12 61
1954305N13117 1954 87 WP MM NOT_NAMED 1954-11-04 15:00:00 TS 12.6926 119.510 main 116 55 __P___________ -1 12.6926 119.510 1 29 1002 11 58
1954305N13117 1954 87 WP MM NOT_NAMED 1954-11-04 18:00:00 TS 13.0000 120.000 main 55 __O___________ -1 13.0000 120.000 1 29 1002 11 57

デジタル台風データ・検索

IBTrACS Databaseについて

本データベースは、米国NOAAが公開する1842年以降の世界の熱帯低気圧のベストトラックデータアーカイブInternational Best Track Archive for Climate Stewardship (IBTrACS)を、ウェブで閲覧しやすい形式に変換したものです。

最終更新日:2021-10-21